KHEY/HEY METAR and TAF weather

Enter ICAO airport designator
Station Type Date Time Source
KHEY METAR 2021/07/24 20:58 UTC NOAA

KHEY 242058Z AUTO 11006KT 9SM CLR 33/22 A3001 RMK AO2 SLP161 T03250223 57015


Station Type Date Time Source
KHEY Decoded METAR 2021/07/24 20:58 UTC NOAA

Hanchey AHP / Ozark, AL, United States (KHEY) 31-21N 085-40W
Jul 24, 2021 - 04:58 PM EDT / 2021.07.24 2058 UTC
Wind: from the ESE (110 degrees) at 7 MPH (6 KT):0
Visibility: 9 mile(s):0
Sky conditions: clear
Temperature: 90.5 F (32.5 C)
Heat index: 98.1 F (36.7 C):1
Dew Point: 72.1 F (22.3 C)
Relative Humidity: 55%
Pressure (altimeter): 30.01 in. Hg (1016 hPa)
Pressure tendency: 0.04 inches (1.5 hPa) lower than three hours ago
ob: KHEY 242058Z AUTO 11006KT 9SM CLR 33/22 A3001 RMK AO2 SLP161 T03250223 57015
cycle: 21

Station Type Date Time Source
KHEY TAF UTC NOAA

Error!

Example: see airport list